createdAt,value
2017-07-06T09:04:26.274Z,27.95
2017-07-06T09:05:25.975Z,28.14
2017-07-06T09:06:25.972Z,28.19
2017-07-06T09:07:25.961Z,28.39
2017-07-06T09:08:25.964Z,28.41
2017-07-06T09:09:26.821Z,28.52
2017-07-06T09:10:25.747Z,28.86
2017-07-06T09:11:25.746Z,29.13
2017-07-06T09:12:26.404Z,29.38
2017-07-06T09:13:26.092Z,29.59
2017-07-06T09:14:26.235Z,29.6
2017-07-06T09:15:25.932Z,29.49
2017-07-06T09:16:26.230Z,29.45
2017-07-06T09:17:26.224Z,29.61
2017-07-06T09:18:25.612Z,29.68
2017-07-06T09:19:25.610Z,29.71
2017-07-06T09:20:26.221Z,29.71
2017-07-06T09:21:25.603Z,29.63
2017-07-06T09:22:25.902Z,29.65
2017-07-06T09:23:25.900Z,29.78
2017-07-06T09:24:25.903Z,29.86
2017-07-06T09:25:26.197Z,30.15
2017-07-06T09:26:26.197Z,30
2017-07-06T09:27:26.195Z,29.95
2017-07-06T09:28:25.891Z,29.76
2017-07-06T09:29:25.884Z,29.72
2017-07-06T09:30:26.222Z,29.82
2017-07-06T09:31:26.187Z,29.88
2017-07-06T09:32:26.008Z,29.88
2017-07-06T09:33:25.871Z,29.93
2017-07-06T09:34:27.538Z,30.08
2017-07-06T09:35:25.573Z,30.21
2017-07-06T09:36:26.166Z,30.4
2017-07-06T09:37:25.867Z,30.57
2017-07-06T09:38:26.189Z,30.8
2017-07-06T09:39:26.157Z,31.02
2017-07-06T09:40:25.547Z,31.03
2017-07-06T09:41:25.851Z,31.27
2017-07-06T09:42:25.847Z,31.52
2017-07-06T09:43:25.849Z,31.64
2017-07-06T09:44:25.538Z,31.99
2017-07-06T09:45:26.144Z,32.09
2017-07-06T09:46:26.153Z,32.34
2017-07-06T09:47:26.141Z,32.34
2017-07-06T09:48:25.836Z,32.46
2017-07-06T09:49:25.833Z,32.51
2017-07-06T09:50:25.836Z,32.46
2017-07-06T09:51:26.386Z,32.41
2017-07-06T09:52:26.133Z,32.36
2017-07-06T09:53:26.134Z,32.04
2017-07-06T09:54:26.185Z,32.03
2017-07-06T09:55:26.129Z,32.12
2017-07-06T09:56:26.129Z,32.23
2017-07-06T09:57:25.823Z,32.22
2017-07-06T09:58:26.126Z,32.07
2017-07-06T09:59:26.126Z,31.76
2017-07-06T10:00:26.129Z,31.78
2017-07-06T10:01:26.127Z,31.89
2017-07-06T10:02:26.119Z,32.04
2017-07-06T10:03:26.440Z,32.23
2017-07-06T10:04:25.508Z,32.41
2017-07-06T10:05:25.815Z,32.52
2017-07-06T10:06:26.381Z,32.78
2017-07-06T10:07:26.115Z,32.87
2017-07-06T10:08:26.117Z,33.05
2017-07-06T10:09:26.112Z,33.05
2017-07-06T10:10:25.811Z,33.15
2017-07-06T10:11:25.906Z,33.01
2017-07-06T10:12:26.344Z,32.67
2017-07-06T10:13:26.146Z,32.3
2017-07-06T10:14:26.106Z,31.94
2017-07-06T10:15:25.498Z,31.85
2017-07-06T10:16:26.106Z,31.62
2017-07-06T10:17:25.856Z,31.74
2017-07-06T10:18:25.797Z,31.87
2017-07-06T10:19:25.798Z,32
2017-07-06T10:20:25.794Z,31.92
2017-07-06T10:21:26.096Z,31.87
2017-07-06T10:22:25.791Z,32.12
2017-07-06T10:23:25.792Z,32.38
2017-07-06T10:24:26.092Z,32.58
2017-07-06T10:25:26.097Z,32.73
2017-07-06T10:26:26.098Z,32.58
2017-07-06T10:27:26.088Z,32.41
2017-07-06T10:28:26.088Z,32
2017-07-06T10:29:26.097Z,31.78
2017-07-06T10:30:26.103Z,31.4
2017-07-06T10:31:26.087Z,30.97
2017-07-06T10:32:25.779Z,30.55
2017-07-06T10:33:25.775Z,30.19
2017-07-06T10:34:25.778Z,29.84
2017-07-06T10:35:26.081Z,29.87
2017-07-06T10:36:26.071Z,29.79
2017-07-06T10:37:26.073Z,29.81
2017-07-06T10:38:26.622Z,30.1
2017-07-06T10:39:25.460Z,30.34
2017-07-06T10:40:25.761Z,30.48
2017-07-06T10:41:26.056Z,30.21
2017-07-06T10:42:25.748Z,30.18
2017-07-06T10:43:26.047Z,30
2017-07-06T10:44:26.293Z,29.88
2017-07-06T10:45:26.043Z,29.9
2017-07-06T10:46:25.545Z,29.78
2017-07-06T10:47:25.885Z,29.66
2017-07-06T10:48:26.030Z,29.61
2017-07-06T10:49:26.024Z,29.65
2017-07-06T10:50:25.721Z,29.68
2017-07-06T10:51:26.020Z,29.45
2017-07-06T10:52:26.013Z,29.45
2017-07-06T10:53:26.007Z,29.45
2017-07-06T10:54:26.011Z,29.68
2017-07-06T10:55:26.004Z,29.93
2017-07-06T10:56:25.993Z,30.03
2017-07-06T10:57:25.988Z,30.02
2017-07-06T10:58:26.035Z,29.93
2017-07-06T10:59:25.980Z,29.94
2017-07-06T11:00:25.972Z,29.88
2017-07-06T11:01:25.973Z,29.84
2017-07-06T11:02:26.393Z,29.81
2017-07-06T11:03:26.204Z,29.75
2017-07-06T11:04:26.156Z,29.63
2017-07-06T11:05:25.924Z,29.36
2017-07-06T11:06:25.652Z,29.26
2017-07-06T11:07:25.635Z,29.1
2017-07-06T11:08:25.629Z,29.08
2017-07-06T11:09:25.930Z,29.13
2017-07-06T11:10:26.529Z,29.22
2017-07-06T11:11:25.856Z,29.32
2017-07-06T11:12:25.676Z,29.53
2017-07-06T11:13:25.602Z,29.72
2017-07-06T11:14:25.824Z,30.13
2017-07-06T11:15:25.591Z,30.34
2017-07-06T11:16:25.584Z,30.63
2017-07-06T11:17:25.886Z,30.75
2017-07-06T11:18:25.577Z,31.06
2017-07-06T11:19:25.873Z,31.06
2017-07-06T11:20:25.870Z,31.22
2017-07-06T11:21:25.866Z,31.54
2017-07-06T11:22:25.554Z,31.8
2017-07-06T11:23:25.550Z,31.78
2017-07-06T11:24:25.492Z,31.94
2017-07-06T11:25:25.845Z,31.99
2017-07-06T11:26:25.846Z,32.08
2017-07-06T11:27:25.531Z,32.03
2017-07-06T11:28:25.833Z,32.01
2017-07-06T11:29:25.830Z,32.08
2017-07-06T11:30:25.520Z,32.33
2017-07-06T11:31:25.516Z,32.56
2017-07-06T11:32:25.515Z,32.65
2017-07-06T11:33:25.816Z,32.89
2017-07-06T11:34:25.813Z,33.22
2017-07-06T11:35:25.203Z,33.46
2017-07-06T11:36:25.812Z,33.67
2017-07-06T11:37:25.807Z,33.92
2017-07-06T11:38:25.801Z,33.98
2017-07-06T11:39:25.803Z,34.14
2017-07-06T11:40:25.806Z,34.14
2017-07-06T11:41:25.802Z,33.99
2017-07-06T11:42:25.807Z,33.64
2017-07-06T11:43:25.807Z,33.2
2017-07-06T11:44:25.796Z,32.8
2017-07-06T11:45:25.493Z,32.29
2017-07-06T11:46:25.794Z,31.97
2017-07-06T11:47:25.795Z,31.77
2017-07-06T11:48:25.802Z,31.92
2017-07-06T11:49:25.802Z,32.03
2017-07-06T11:50:25.821Z,32.03
2017-07-06T11:51:25.487Z,32.29
2017-07-06T11:52:25.491Z,32.78
2017-07-06T11:53:25.786Z,33.07
2017-07-06T11:54:25.794Z,33.34
2017-07-06T11:55:25.780Z,33.71
2017-07-06T11:56:25.783Z,33.73
2017-07-06T11:57:26.412Z,33.73
2017-07-06T11:58:25.786Z,33.62
2017-07-06T11:59:25.473Z,33.59
2017-07-06T12:00:25.783Z,33.62
2017-07-06T12:01:25.781Z,33.79
2017-07-06T12:02:25.784Z,33.98
2017-07-06T12:03:25.484Z,34.18
2017-07-06T12:04:25.777Z,34.2
2017-07-06T12:05:25.578Z,33.95
2017-07-06T12:06:25.780Z,33.55
2017-07-06T12:07:25.793Z,33.32
2017-07-06T12:08:25.492Z,33.05
2017-07-06T12:09:26.268Z,32.73
2017-07-06T12:10:26.143Z,32.43
2017-07-06T12:11:25.816Z,32.41
2017-07-06T12:12:25.779Z,32.26
2017-07-06T12:13:25.911Z,31.97
2017-07-06T12:14:25.781Z,31.78
2017-07-06T12:15:25.474Z,31.58
2017-07-06T12:16:25.776Z,31.39
2017-07-06T12:17:25.469Z,31.33
2017-07-06T12:18:25.768Z,31.39
2017-07-06T12:19:25.771Z,31.59
2017-07-06T12:20:25.467Z,31.73
2017-07-06T12:21:25.771Z,31.84
2017-07-06T12:22:25.458Z,31.7
2017-07-06T12:23:25.455Z,31.76
2017-07-06T12:24:25.761Z,31.76
2017-07-06T12:25:25.451Z,31.7
2017-07-06T12:26:25.452Z,31.73
2017-07-06T12:27:25.774Z,31.49
2017-07-06T12:28:25.756Z,31.51
2017-07-06T12:29:25.743Z,31.31
2017-07-06T12:30:25.745Z,31.22
2017-07-06T12:31:25.744Z,31.07
2017-07-06T12:32:25.433Z,30.91
2017-07-06T12:33:25.434Z,30.61
2017-07-06T12:34:25.427Z,30.63
2017-07-06T12:35:25.732Z,30.4
2017-07-06T12:36:25.722Z,30.28
2017-07-06T12:37:25.719Z,30.03
2017-07-06T12:38:25.414Z,29.91
2017-07-06T12:39:25.715Z,29.87
2017-07-06T12:40:25.714Z,29.72
2017-07-06T12:41:25.711Z,29.69
2017-07-06T12:42:25.700Z,29.49
2017-07-06T12:43:25.386Z,29.41
2017-07-06T12:44:25.687Z,29.26
2017-07-06T12:45:25.683Z,29.2
2017-07-06T12:46:25.671Z,28.98
2017-07-06T12:47:25.671Z,28.97
2017-07-06T12:48:25.663Z,28.82
2017-07-06T12:49:25.654Z,28.72
2017-07-06T12:50:25.656Z,28.62
2017-07-06T12:51:25.639Z,28.48
2017-07-06T12:52:25.632Z,28.39
2017-07-06T12:53:25.320Z,28.37
2017-07-06T12:54:25.618Z,28.35
2017-07-06T12:55:25.305Z,28.3
2017-07-06T12:56:25.602Z,28.41
2017-07-06T12:57:25.287Z,28.38
2017-07-06T12:58:25.594Z,28.32
2017-07-06T12:59:25.275Z,28.39
2017-07-06T13:00:25.265Z,28.45
2017-07-06T13:01:25.562Z,28.45
2017-07-06T13:02:25.252Z,28.44
2017-07-06T13:03:25.237Z,28.37
2017-07-06T13:04:25.215Z,28.38
2017-07-06T13:05:25.525Z,28.35
2017-07-06T13:06:25.217Z,28.3
2017-07-06T13:07:25.514Z,28.17
2017-07-06T13:08:25.520Z,28.15
2017-07-06T13:09:25.192Z,28.17
2017-07-06T13:10:25.481Z,28.1
2017-07-06T13:11:25.471Z,28.1
2017-07-06T13:12:25.158Z,28.07
2017-07-06T13:13:25.149Z,28.05
2017-07-06T13:14:25.143Z,27.96
2017-07-06T13:15:25.135Z,28
2017-07-06T13:16:25.126Z,27.98
2017-07-06T13:17:25.115Z,28
2017-07-06T13:18:25.406Z,27.98
2017-07-06T13:19:25.402Z,28.11
2017-07-06T13:20:25.391Z,28.04
2017-07-06T13:21:25.385Z,28.12
2017-07-06T13:22:25.065Z,28.23
2017-07-06T13:23:25.361Z,28.37
2017-07-06T13:24:25.353Z,28.57
2017-07-06T13:25:25.042Z,28.98
2017-07-06T13:26:25.033Z,29.32
2017-07-06T13:27:25.329Z,29.72
2017-07-06T13:28:25.017Z,30.02
2017-07-06T13:29:25.011Z,30.25
2017-07-06T13:30:25.004Z,30.4
2017-07-06T13:31:24.696Z,30.66
2017-07-06T13:32:24.995Z,30.73
2017-07-06T13:33:25.297Z,30.75
2017-07-06T13:34:24.680Z,30.83
2017-07-06T13:35:24.981Z,30.88
2017-07-06T13:36:24.986Z,30.9
2017-07-06T13:37:24.671Z,31.07
2017-07-06T13:38:24.973Z,31.06
2017-07-06T13:39:24.974Z,31.25
2017-07-06T13:40:25.272Z,31.43
2017-07-06T13:41:24.660Z,31.51
2017-07-06T13:42:25.267Z,31.69
2017-07-06T13:43:25.271Z,31.52
2017-07-06T13:44:24.964Z,31.33
2017-07-06T13:45:25.261Z,31.07
2017-07-06T13:46:25.268Z,30.87
2017-07-06T13:47:24.652Z,30.85
2017-07-06T13:48:24.953Z,30.75
2017-07-06T13:49:25.256Z,30.57
2017-07-06T13:50:24.950Z,30.44
2017-07-06T13:51:25.252Z,30.31
2017-07-06T13:52:24.637Z,30.19
2017-07-06T13:53:25.242Z,30.02
2017-07-06T13:54:25.243Z,29.98
2017-07-06T13:55:25.237Z,29.79
2017-07-06T13:56:25.232Z,29.63
2017-07-06T13:57:25.225Z,29.53
2017-07-06T13:58:24.919Z,29.53
2017-07-06T13:59:25.227Z,29.57
2017-07-06T14:00:25.215Z,29.54
2017-07-06T14:01:25.208Z,29.45
2017-07-06T14:02:25.202Z,29.42
2017-07-06T14:03:24.920Z,29.47
2017-07-06T14:04:24.891Z,29.56
2017-07-06T14:05:25.185Z,29.56
2017-07-06T14:06:24.875Z,29.6
2017-07-06T14:07:24.868Z,29.65
2017-07-06T14:08:25.163Z,29.63
2017-07-06T14:09:24.864Z,29.66
2017-07-06T14:10:24.952Z,29.79
2017-07-06T14:11:24.904Z,29.75
2017-07-06T14:12:25.555Z,29.82
2017-07-06T14:13:25.132Z,29.88
2017-07-06T14:14:25.124Z,29.94
2017-07-06T14:15:25.118Z,29.97
2017-07-06T14:16:24.808Z,29.93
2017-07-06T14:17:25.105Z,29.88
2017-07-06T14:18:24.492Z,29.86
2017-07-06T14:19:24.785Z,29.86
2017-07-06T14:20:25.084Z,29.87
2017-07-06T14:21:25.074Z,29.91
2017-07-06T14:22:24.461Z,29.91
2017-07-06T14:23:24.455Z,29.84
2017-07-06T14:24:25.053Z,29.79
2017-07-06T14:25:25.059Z,29.72
2017-07-06T14:26:25.039Z,29.63
2017-07-06T14:27:25.030Z,29.53
2017-07-06T14:28:24.721Z,29.5
2017-07-06T14:29:25.022Z,29.49
2017-07-06T14:30:25.008Z,29.47
2017-07-06T14:31:25.001Z,29.49
2017-07-06T14:32:24.993Z,29.47
2017-07-06T14:33:24.990Z,29.39
2017-07-06T14:34:24.981Z,29.39
2017-07-06T14:35:24.982Z,29.41
2017-07-06T14:36:24.960Z,29.39
2017-07-06T14:37:24.958Z,29.42
2017-07-06T14:38:24.670Z,29.42
2017-07-06T14:39:24.634Z,29.36
2017-07-06T14:40:25.673Z,29.34
2017-07-06T14:41:24.616Z,29.26
2017-07-06T14:42:24.925Z,29.24
2017-07-06T14:43:24.599Z,29.26
2017-07-06T14:44:24.896Z,29.24
2017-07-06T14:45:24.583Z,29.32
2017-07-06T14:46:24.576Z,29.39
2017-07-06T14:47:24.871Z,29.44
2017-07-06T14:48:24.860Z,29.42
2017-07-06T14:49:24.859Z,29.38
2017-07-06T14:50:24.544Z,29.35
2017-07-06T14:51:24.838Z,29.31
2017-07-06T14:52:24.521Z,29.2
2017-07-06T14:53:24.522Z,29.24
2017-07-06T14:54:24.814Z,29.22
2017-07-06T14:55:24.496Z,29.23
2017-07-06T14:56:24.490Z,29.23
2017-07-06T14:57:24.785Z,29.19
2017-07-06T14:58:24.777Z,29.07
2017-07-06T14:59:24.465Z,29.05
2017-07-06T15:00:24.755Z,28.97
2017-07-06T15:01:24.446Z,29.01
2017-07-06T15:02:24.436Z,28.98
2017-07-06T15:03:24.426Z,28.82
2017-07-06T15:04:24.420Z,28.89
2017-07-06T15:05:24.718Z,28.79
2017-07-06T15:06:24.711Z,28.89
2017-07-06T15:07:24.691Z,28.85
2017-07-06T15:08:24.685Z,28.82
2017-07-06T15:09:24.932Z,28.82
2017-07-06T15:10:25.728Z,28.75
2017-07-06T15:11:24.509Z,28.72
2017-07-06T15:12:24.659Z,28.72
2017-07-06T15:13:24.640Z,28.67
2017-07-06T15:14:24.512Z,28.67
2017-07-06T15:15:24.882Z,28.66
2017-07-06T15:16:24.606Z,28.63
2017-07-06T15:17:24.300Z,28.63
2017-07-06T15:18:24.593Z,28.6
2017-07-06T15:19:24.280Z,28.51
2017-07-06T15:20:24.574Z,28.54
2017-07-06T15:21:24.256Z,28.45
2017-07-06T15:22:23.939Z,28.33
2017-07-06T15:23:24.233Z,28.38
2017-07-06T15:24:24.574Z,28.19
2017-07-06T15:25:24.518Z,28.2
2017-07-06T15:26:24.204Z,28.1
2017-07-06T15:27:24.504Z,27.96
2017-07-06T15:28:24.493Z,27.98
2017-07-06T15:29:24.479Z,27.87
2017-07-06T15:30:24.465Z,27.86
2017-07-06T15:31:24.455Z,27.92
2017-07-06T15:32:24.143Z,27.89
2017-07-06T15:33:24.439Z,27.9
2017-07-06T15:34:24.425Z,27.83
2017-07-06T15:35:24.409Z,27.9
2017-07-06T15:36:24.396Z,27.89
2017-07-06T15:37:24.090Z,27.82
2017-07-06T15:38:24.072Z,27.82
2017-07-06T15:39:24.060Z,27.8
2017-07-06T15:40:24.053Z,27.78
2017-07-06T15:41:24.381Z,27.75
2017-07-06T15:42:24.027Z,27.68
2017-07-06T15:43:24.320Z,27.77
2017-07-06T15:44:24.004Z,27.67
2017-07-06T15:45:23.991Z,27.6
2017-07-06T15:46:23.979Z,27.54
2017-07-06T15:47:24.274Z,27.45
2017-07-06T15:48:23.957Z,27.42
2017-07-06T15:49:24.252Z,27.33
2017-07-06T15:50:23.933Z,27.35
2017-07-06T15:51:24.225Z,27.22
2017-07-06T15:52:24.213Z,27.08
2017-07-06T15:53:23.898Z,27.1
2017-07-06T15:54:23.889Z,27.1
2017-07-06T15:55:24.178Z,27.12
2017-07-06T15:56:23.860Z,27.14
2017-07-06T15:57:23.865Z,27.14
2017-07-06T15:58:24.142Z,27.08
2017-07-06T15:59:23.828Z,27.08
2017-07-06T16:00:23.813Z,27.07
2017-07-06T16:01:23.804Z,27.08
2017-07-06T16:02:24.842Z,27.11
2017-07-06T16:03:24.079Z,27.03
2017-07-06T16:04:23.763Z,27.11
2017-07-06T16:05:23.750Z,27.12
2017-07-06T16:06:24.040Z,27.11
2017-07-06T16:07:24.041Z,27.08
2017-07-06T16:08:23.975Z,27.12
2017-07-06T16:09:23.706Z,27.21
2017-07-06T16:10:23.999Z,27.25
2017-07-06T16:11:23.982Z,27.35
2017-07-06T16:12:23.974Z,27.54
2017-07-06T16:13:24.013Z,27.64
2017-07-06T16:14:23.960Z,27.7
2017-07-06T16:15:23.634Z,27.8
2017-07-06T16:16:23.625Z,27.85
2017-07-06T16:17:23.920Z,27.98
2017-07-06T16:18:23.907Z,28.23
2017-07-06T16:19:23.892Z,28.42
2017-07-06T16:20:23.888Z,28.56
2017-07-06T16:21:23.873Z,28.67
2017-07-06T16:22:23.255Z,28.93
2017-07-06T16:23:23.858Z,29.02
2017-07-06T16:24:23.541Z,28.98
2017-07-06T16:25:23.843Z,29.19
2017-07-06T16:26:23.526Z,29.26
2017-07-06T16:27:23.517Z,29.41
2017-07-06T16:28:23.810Z,29.51
2017-07-06T16:29:23.812Z,29.63
2017-07-06T16:30:23.498Z,29.81
2017-07-06T16:31:23.794Z,29.84
2017-07-06T16:32:23.481Z,30.05
2017-07-06T16:33:23.476Z,30.03
2017-07-06T16:34:23.468Z,30.13
2017-07-06T16:35:23.463Z,30.23
2017-07-06T16:36:23.760Z,30.48
2017-07-06T16:37:23.449Z,30.57
2017-07-06T16:38:23.445Z,30.65
2017-07-06T16:39:23.440Z,30.87
2017-07-06T16:40:23.431Z,31.06
2017-07-06T16:41:23.427Z,31.02
2017-07-06T16:42:23.422Z,31.05
2017-07-06T16:43:23.416Z,31.03
2017-07-06T16:44:23.109Z,31.1
2017-07-06T16:45:23.406Z,31
2017-07-06T16:46:23.403Z,31.06
2017-07-06T16:47:23.097Z,31.06
2017-07-06T16:48:23.395Z,30.87
2017-07-06T16:49:23.085Z,30.77
2017-07-06T16:50:23.082Z,30.75
2017-07-06T16:51:23.378Z,30.65
2017-07-06T16:52:23.676Z,30.46
2017-07-06T16:53:23.064Z,30.21
2017-07-06T16:54:23.665Z,29.97
2017-07-06T16:55:23.657Z,29.88
2017-07-06T16:56:23.046Z,29.81
2017-07-06T16:57:23.348Z,29.75
2017-07-06T16:58:23.032Z,29.61
2017-07-06T16:59:23.633Z,29.61
2017-07-06T17:00:23.321Z,29.5
2017-07-06T17:01:23.012Z,29.32
2017-07-06T17:02:23.313Z,29.41
2017-07-06T17:03:22.999Z,29.42
2017-07-06T17:04:22.989Z,29.5
2017-07-06T17:05:23.286Z,29.71
2017-07-06T17:06:23.277Z,29.88
2017-07-06T17:07:23.270Z,30.02
2017-07-06T17:08:22.961Z,30.25
2017-07-06T17:09:23.596Z,30.27
2017-07-06T17:10:22.945Z,30.43
2017-07-06T17:11:23.241Z,30.55
2017-07-06T17:12:22.932Z,30.54
2017-07-06T17:13:22.924Z,30.53
2017-07-06T17:14:23.220Z,30.51
2017-07-06T17:15:22.909Z,30.55
2017-07-06T17:16:23.207Z,30.43
2017-07-06T17:17:22.894Z,30.35
2017-07-06T17:18:23.191Z,30.23
2017-07-06T17:19:22.880Z,30.09
2017-07-06T17:20:23.177Z,29.94
2017-07-06T17:21:23.174Z,29.86
2017-07-06T17:22:22.856Z,29.69
2017-07-06T17:23:22.848Z,29.65
2017-07-06T17:24:22.840Z,29.44
2017-07-06T17:25:22.832Z,29.29
2017-07-06T17:26:23.125Z,29.22
2017-07-06T17:27:22.817Z,29.1
2017-07-06T17:28:22.806Z,28.97
2017-07-06T17:29:23.105Z,28.84
2017-07-06T17:30:22.790Z,28.69
2017-07-06T17:31:22.776Z,28.63
2017-07-06T17:32:23.079Z,28.57
2017-07-06T17:33:23.063Z,28.45
2017-07-06T17:34:23.053Z,28.41
2017-07-06T17:35:23.042Z,28.42
2017-07-06T17:36:23.030Z,28.25
2017-07-06T17:37:22.719Z,28.22
2017-07-06T17:38:22.708Z,28.15
2017-07-06T17:39:22.698Z,28.1
2017-07-06T17:40:23.291Z,28
2017-07-06T17:41:22.678Z,28
2017-07-06T17:42:23.271Z,28
2017-07-06T17:43:22.655Z,28.05
2017-07-06T17:44:22.645Z,27.86
2017-07-06T17:45:22.718Z,27.9
2017-07-06T17:46:22.936Z,27.8
2017-07-06T17:47:22.913Z,27.78
2017-07-06T17:48:23.215Z,27.74
2017-07-06T17:49:23.198Z,27.68
2017-07-06T17:50:23.188Z,27.74
2017-07-06T17:51:23.177Z,27.68
2017-07-06T17:52:23.168Z,27.67
2017-07-06T17:53:23.335Z,27.7
2017-07-06T17:54:23.145Z,27.74
2017-07-06T17:55:22.523Z,27.63
2017-07-06T17:56:23.123Z,27.63
2017-07-06T17:57:23.115Z,27.68
2017-07-06T17:58:22.796Z,27.7
2017-07-06T17:59:23.089Z,27.7
2017-07-06T18:00:23.077Z,27.55
2017-07-06T18:01:23.067Z,27.52
2017-07-06T18:02:23.144Z,27.51
2017-07-06T18:03:23.043Z,27.49
2017-07-06T18:04:23.076Z,27.52
2017-07-06T18:05:23.021Z,27.7
2017-07-06T18:06:23.008Z,27.85
2017-07-06T18:07:23.003Z,27.86
2017-07-06T18:08:22.685Z,27.87
2017-07-06T18:09:23.242Z,27.78
2017-07-06T18:10:23.133Z,27.77
2017-07-06T18:11:22.649Z,27.63
2017-07-06T18:12:22.693Z,27.67
2017-07-06T18:13:23.247Z,27.65
2017-07-06T18:14:22.620Z,27.58
2017-07-06T18:15:22.918Z,27.63
2017-07-06T18:16:22.904Z,27.58
2017-07-06T18:17:22.893Z,27.6
2017-07-06T18:18:22.892Z,27.52
2017-07-06T18:19:22.871Z,27.52
2017-07-06T18:20:22.557Z,27.44
2017-07-06T18:21:22.844Z,27.4
2017-07-06T18:22:22.224Z,27.39
2017-07-06T18:23:22.212Z,27.42
2017-07-06T18:24:22.809Z,27.32
2017-07-06T18:25:22.496Z,27.25
2017-07-06T18:26:22.806Z,27.18
2017-07-06T18:27:22.775Z,27.21
2017-07-06T18:28:22.460Z,27.18
2017-07-06T18:29:22.752Z,27.08
2017-07-06T18:30:22.434Z,27.14
2017-07-06T18:31:22.731Z,27.1
2017-07-06T18:32:22.411Z,26.97
2017-07-06T18:33:22.711Z,26.96
2017-07-06T18:34:22.699Z,26.81
2017-07-06T18:35:22.685Z,26.83
2017-07-06T18:36:22.670Z,26.71
2017-07-06T18:37:22.661Z,26.65
2017-07-06T18:38:22.648Z,26.56
2017-07-06T18:39:22.920Z,26.58
2017-07-06T18:40:22.718Z,26.52
2017-07-06T18:41:22.681Z,26.34
2017-07-06T18:42:22.297Z,26.25
2017-07-06T18:43:22.590Z,26.21
2017-07-06T18:44:22.574Z,26.15
2017-07-06T18:45:22.560Z,26.07
2017-07-06T18:46:22.243Z,26.03
2017-07-06T18:47:22.534Z,25.91
2017-07-06T18:48:22.534Z,25.88
2017-07-06T18:49:22.513Z,25.9
2017-07-06T18:50:22.505Z,25.81
2017-07-06T18:51:22.482Z,25.8
2017-07-06T18:52:22.167Z,25.69
2017-07-06T18:53:22.460Z,25.68
2017-07-06T18:54:22.458Z,25.69
2017-07-06T18:55:22.433Z,25.51
2017-07-06T18:56:22.419Z,25.5
2017-07-06T18:57:22.467Z,25.4
2017-07-06T18:58:22.392Z,25.48
2017-07-06T18:59:22.379Z,25.36
2017-07-06T19:00:22.366Z,25.29
2017-07-06T19:01:22.358Z,25.25
2017-07-06T19:02:22.338Z,25.25
2017-07-06T19:03:22.324Z,25.22
2017-07-06T19:04:22.320Z,25.14
2017-07-06T19:05:22.299Z,25.13
2017-07-06T19:06:22.290Z,25.11
2017-07-06T19:07:21.964Z,25.04
2017-07-06T19:08:21.952Z,24.96
2017-07-06T19:09:21.950Z,24.95
2017-07-06T19:10:22.673Z,24.98
2017-07-06T19:11:22.160Z,24.92
2017-07-06T19:12:21.898Z,24.86
2017-07-06T19:13:22.191Z,24.86
2017-07-06T19:14:22.173Z,24.85
2017-07-06T19:15:22.158Z,24.76
2017-07-06T19:16:22.165Z,24.78
2017-07-06T19:17:22.138Z,24.77
2017-07-06T19:18:22.122Z,24.7
2017-07-06T19:19:21.495Z,24.68
2017-07-06T19:20:21.786Z,24.61
2017-07-06T19:21:22.075Z,24.57
2017-07-06T19:22:22.057Z,24.58
2017-07-06T19:23:21.744Z,24.48
2017-07-06T19:24:22.032Z,24.43
2017-07-06T19:25:22.017Z,24.35
2017-07-06T19:26:21.696Z,24.38
2017-07-06T19:27:21.986Z,24.35
2017-07-06T19:28:21.977Z,24.33
2017-07-06T19:29:21.970Z,24.28
2017-07-06T19:30:21.944Z,24.3
2017-07-06T19:31:21.625Z,24.28
2017-07-06T19:32:21.608Z,24.21
2017-07-06T19:33:21.901Z,24.2
2017-07-06T19:34:21.887Z,24.28
2017-07-06T19:35:21.868Z,24.14
2017-07-06T19:36:21.854Z,24.13
2017-07-06T19:37:21.536Z,24.11
2017-07-06T19:38:21.525Z,24.18
2017-07-06T19:39:21.817Z,24.06
2017-07-06T19:40:21.803Z,24.05
2017-07-06T19:41:21.784Z,24.08
2017-07-06T19:42:21.831Z,24.01
2017-07-06T19:43:21.751Z,24.01
2017-07-06T19:44:21.740Z,23.96
2017-07-06T19:45:21.423Z,23.96
2017-07-06T19:46:21.411Z,23.92
2017-07-06T19:47:21.694Z,23.88
2017-07-06T19:48:21.679Z,23.91
2017-07-06T19:49:21.363Z,23.93
2017-07-06T19:50:21.349Z,23.78
2017-07-06T19:51:21.634Z,23.83
2017-07-06T19:52:21.319Z,23.74
2017-07-06T19:53:21.616Z,23.76
2017-07-06T19:54:21.286Z,23.74
2017-07-06T19:55:21.573Z,23.83
2017-07-06T19:56:21.565Z,23.74
2017-07-06T19:57:21.612Z,23.78
2017-07-06T19:58:21.645Z,23.71
2017-07-06T19:59:21.518Z,23.71
2017-07-06T20:00:21.500Z,23.59
2017-07-06T20:01:21.484Z,23.62
2017-07-06T20:02:21.905Z,23.62
2017-07-06T20:03:21.458Z,23.66
2017-07-06T20:04:21.143Z,23.65
2017-07-06T20:05:21.424Z,23.59
2017-07-06T20:06:21.409Z,23.56
2017-07-06T20:07:21.403Z,23.58
2017-07-06T20:08:21.075Z,23.61
2017-07-06T20:09:21.774Z,23.5
2017-07-06T20:10:21.350Z,23.58
2017-07-06T20:11:21.035Z,23.58
2017-07-06T20:12:21.327Z,23.5
2017-07-06T20:13:21.305Z,23.54
2017-07-06T20:14:21.292Z,23.44
2017-07-06T20:15:21.283Z,23.46
2017-07-06T20:16:21.261Z,23.44
2017-07-06T20:17:21.248Z,23.37
2017-07-06T20:18:21.227Z,23.36
2017-07-06T20:19:21.215Z,23.32
2017-07-06T20:20:21.197Z,23.28
2017-07-06T20:21:20.572Z,23.31
2017-07-06T20:22:20.558Z,23.28
2017-07-06T20:23:20.843Z,23.34
2017-07-06T20:24:21.135Z,23.24
2017-07-06T20:25:20.817Z,23.28
2017-07-06T20:26:20.496Z,23.31
2017-07-06T20:27:21.088Z,23.27
2017-07-06T20:28:21.084Z,23.13
2017-07-06T20:29:21.062Z,23.13
2017-07-06T20:30:20.739Z,23.18
2017-07-06T20:31:21.028Z,23.13
2017-07-06T20:32:21.012Z,23.25
2017-07-06T20:33:20.701Z,23.17
2017-07-06T20:34:20.982Z,23.17
2017-07-06T20:35:20.967Z,23.13
2017-07-06T20:36:20.950Z,23.09
2017-07-06T20:37:20.941Z,23.05
2017-07-06T20:38:20.615Z,23.03
2017-07-06T20:39:20.597Z,23
2017-07-06T20:40:20.889Z,22.98
2017-07-06T20:41:20.872Z,23.03
2017-07-06T20:42:20.246Z,23.02
2017-07-06T20:43:20.230Z,22.96
2017-07-06T20:44:20.519Z,22.87
2017-07-06T20:45:20.198Z,22.94
2017-07-06T20:46:20.184Z,22.88
2017-07-06T20:47:20.167Z,22.85
2017-07-06T20:48:20.153Z,22.87
2017-07-06T20:49:20.136Z,22.99
2017-07-06T20:50:20.425Z,22.87
2017-07-06T20:51:20.713Z,22.87
2017-07-06T20:52:20.088Z,22.96
2017-07-06T20:53:20.074Z,22.96
2017-07-06T20:54:20.057Z,22.9
2017-07-06T20:55:20.646Z,22.94
2017-07-06T20:56:20.076Z,22.85
2017-07-06T20:57:20.011Z,22.99
2017-07-06T20:58:19.994Z,22.93
2017-07-06T20:59:19.979Z,22.94
2017-07-06T21:00:19.962Z,22.87
2017-07-06T21:01:20.252Z,22.91
2017-07-06T21:02:19.931Z,22.91
2017-07-06T21:03:20.217Z,22.87
2017-07-06T21:04:19.900Z,22.93
2017-07-06T21:05:20.192Z,22.96
2017-07-06T21:06:20.174Z,22.96
2017-07-06T21:07:20.155Z,22.88
2017-07-06T21:08:19.837Z,22.93
2017-07-06T21:09:20.127Z,22.87
2017-07-06T21:10:20.118Z,22.9
2017-07-06T21:11:19.790Z,22.83
2017-07-06T21:12:20.076Z,22.84
2017-07-06T21:13:19.759Z,22.69
2017-07-06T21:14:20.047Z,22.65
2017-07-06T21:15:19.727Z,22.6
2017-07-06T21:16:20.014Z,22.48
2017-07-06T21:17:19.697Z,22.47
2017-07-06T21:18:19.678Z,22.39
2017-07-06T21:19:20.270Z,22.35
2017-07-06T21:20:19.647Z,22.38
2017-07-06T21:21:19.631Z,22.38
2017-07-06T21:22:20.221Z,22.26
2017-07-06T21:23:19.598Z,22.3
2017-07-06T21:24:19.885Z,22.29
2017-07-06T21:25:19.868Z,22.35
2017-07-06T21:26:19.548Z,22.26
2017-07-06T21:27:19.533Z,22.26
2017-07-06T21:28:19.516Z,22.35
2017-07-06T21:29:19.802Z,22.44
2017-07-06T21:30:19.788Z,22.47
2017-07-06T21:31:19.836Z,22.23
2017-07-06T21:32:19.451Z,22.26
2017-07-06T21:33:19.736Z,22.17
2017-07-06T21:34:19.418Z,22.14
2017-07-06T21:35:19.705Z,22
2017-07-06T21:36:19.385Z,22.06
2017-07-06T21:37:19.670Z,21.88
2017-07-06T21:38:19.656Z,21.67
2017-07-06T21:39:19.335Z,21.55
2017-07-06T21:40:19.317Z,21.39
2017-07-06T21:41:19.300Z,21.29
2017-07-06T21:42:19.283Z,21.14
2017-07-06T21:43:19.267Z,21.07
2017-07-06T21:44:19.250Z,20.88
2017-07-06T21:45:19.235Z,20.93
2017-07-06T21:46:19.521Z,20.88
2017-07-06T21:47:19.199Z,20.92
2017-07-06T21:48:19.483Z,20.87
2017-07-06T21:49:19.466Z,20.82
2017-07-06T21:50:19.147Z,20.69
2017-07-06T21:51:19.736Z,20.75
2017-07-06T21:52:19.720Z,20.82
2017-07-06T21:53:19.398Z,20.72
2017-07-06T21:54:19.380Z,20.75
2017-07-06T21:55:19.670Z,20.84
2017-07-06T21:56:19.651Z,20.92
2017-07-06T21:57:19.690Z,20.88
2017-07-06T21:58:19.610Z,20.85
2017-07-06T21:59:19.296Z,20.85